createdAt,value
2023-02-06T00:00:11.220Z,4.19
2023-02-06T00:02:40.573Z,4.13
2023-02-06T00:05:10.535Z,4.26
2023-02-06T00:07:39.752Z,4.35
2023-02-06T00:10:10.148Z,4.26
2023-02-06T00:12:40.813Z,4.24
2023-02-06T00:15:11.093Z,4.08
2023-02-06T00:17:40.518Z,3.84
2023-02-06T00:20:11.769Z,4.12
2023-02-06T00:22:41.245Z,3.94
2023-02-06T00:25:10.959Z,4.17
2023-02-06T00:27:41.527Z,4.39
2023-02-06T00:30:11.732Z,4.09
2023-02-06T00:32:40.831Z,3.84
2023-02-06T00:35:10.531Z,3.59
2023-02-06T00:37:39.760Z,4.00
2023-02-06T00:40:10.425Z,4.00
2023-02-06T00:42:41.837Z,4.20
2023-02-06T00:45:11.701Z,3.92
2023-02-06T00:47:41.005Z,3.89
2023-02-06T00:50:12.346Z,3.80
2023-02-06T00:52:41.602Z,3.79
2023-02-06T00:55:11.175Z,3.59
2023-02-06T00:57:41.885Z,3.62
2023-02-06T01:00:12.844Z,3.73
2023-02-06T01:02:42.242Z,3.97
2023-02-06T01:05:12.336Z,4.02
2023-02-06T01:07:42.341Z,3.97
2023-02-06T01:10:14.038Z,3.91
2023-02-06T01:12:45.041Z,3.79
2023-02-06T01:15:15.930Z,4.08
2023-02-06T01:17:45.414Z,4.10
2023-02-06T01:20:15.533Z,4.16
2023-02-06T01:22:45.227Z,3.87
2023-02-06T01:25:14.502Z,3.99
2023-02-06T01:27:45.592Z,4.05
2023-02-06T01:30:15.961Z,4.32
2023-02-06T01:32:45.605Z,4.45
2023-02-06T01:35:18.114Z,4.26
2023-02-06T01:37:47.742Z,4.22
2023-02-06T01:40:19.075Z,4.33
2023-02-06T01:42:50.051Z,4.55
2023-02-06T01:45:36.997Z,4.39
2023-02-06T01:48:11.050Z,4.26
2023-02-06T01:50:43.536Z,4.49
2023-02-06T01:53:14.415Z,4.44
2023-02-06T01:55:45.866Z,4.42
2023-02-06T01:58:22.637Z,4.33
2023-02-06T02:00:52.113Z,4.23
2023-02-06T02:03:21.690Z,3.78
2023-02-06T02:05:51.707Z,4.06
2023-02-06T02:08:26.833Z,4.01
2023-02-06T02:10:56.449Z,4.15
2023-02-06T02:13:27.524Z,3.90
2023-02-06T02:16:04.140Z,3.82
2023-02-06T02:18:49.416Z,4.02
2023-02-06T02:21:59.479Z,3.98
2023-02-06T02:24:51.739Z,4.04
2023-02-06T02:27:53.534Z,4.24
2023-02-06T02:31:01.807Z,4.32
2023-02-06T02:34:03.844Z,3.91
2023-02-06T02:36:40.262Z,3.92
2023-02-06T02:39:19.897Z,3.97
2023-02-06T02:41:54.422Z,3.92
2023-02-06T02:44:32.490Z,4.05
2023-02-06T02:47:08.405Z,3.73
2023-02-06T02:49:39.207Z,3.45
2023-02-06T02:52:10.069Z,3.46
2023-02-06T02:54:39.346Z,3.43
2023-02-06T02:57:14.892Z,3.35
2023-02-06T02:59:47.599Z,3.55
2023-02-06T03:02:20.668Z,3.39
2023-02-06T03:04:52.551Z,3.64
2023-02-06T03:07:32.725Z,3.64
2023-02-06T03:10:13.130Z,3.41
2023-02-06T03:12:49.877Z,3.40
2023-02-06T03:15:28.282Z,3.40
2023-02-06T03:18:05.323Z,3.47
2023-02-06T03:20:37.634Z,3.35
2023-02-06T03:23:09.517Z,3.31
2023-02-06T03:25:42.980Z,3.18
2023-02-06T03:28:18.069Z,3.34
2023-02-06T03:36:01.116Z,3.56
2023-02-06T03:38:32.173Z,3.58
2023-02-06T03:41:03.130Z,3.43
2023-02-06T03:43:33.132Z,3.46
2023-02-06T03:46:06.332Z,3.19
2023-02-06T03:48:39.099Z,3.23
2023-02-06T03:51:14.418Z,3.54
2023-02-06T03:53:46.879Z,3.69
2023-02-06T03:56:23.391Z,3.75
2023-02-06T03:58:52.952Z,3.74
2023-02-06T04:01:22.355Z,3.80
2023-02-06T04:03:52.676Z,3.96
2023-02-06T04:06:22.228Z,3.98
2023-02-06T04:08:53.630Z,4.02
2023-02-06T04:11:22.869Z,4.17
2023-02-06T04:13:52.436Z,3.84
2023-02-06T04:16:21.647Z,3.69
2023-02-06T04:18:51.210Z,4.01
2023-02-06T04:21:20.444Z,3.88
2023-02-06T04:23:49.855Z,4.00
2023-02-06T04:26:20.385Z,3.64
2023-02-06T04:28:49.826Z,3.66
2023-02-06T04:31:19.233Z,3.85
2023-02-06T04:33:48.735Z,4.11
2023-02-06T04:36:17.908Z,4.04
2023-02-06T04:38:47.402Z,3.63
2023-02-06T04:41:16.527Z,3.64
2023-02-06T04:43:47.416Z,3.32
2023-02-06T04:46:16.612Z,3.62
2023-02-06T04:48:46.059Z,3.66
2023-02-06T04:51:15.309Z,4.03
2023-02-06T04:53:44.916Z,3.75
2023-02-06T04:56:14.933Z,3.75
2023-02-06T04:58:44.345Z,3.60
2023-02-06T05:01:16.895Z,3.94
2023-02-06T05:03:46.673Z,4.26
2023-02-06T05:06:16.625Z,4.42
2023-02-06T05:08:46.071Z,4.44
2023-02-06T05:11:15.325Z,4.38
2023-02-06T05:13:45.163Z,4.51
2023-02-06T05:16:17.624Z,4.81
2023-02-06T05:18:47.329Z,4.39
2023-02-06T05:21:16.968Z,4.44
2023-02-06T05:23:46.434Z,4.65
2023-02-06T05:26:15.616Z,4.34
2023-02-06T05:28:45.282Z,4.64
2023-02-06T05:31:19.869Z,4.16
2023-02-06T05:33:52.489Z,4.46
2023-02-06T05:36:22.895Z,4.67
2023-02-06T05:38:52.455Z,4.85
2023-02-06T05:41:21.886Z,5.13
2023-02-06T05:43:51.519Z,4.48
2023-02-06T05:46:22.160Z,4.19
2023-02-06T05:48:51.774Z,4.48
2023-02-06T05:51:21.053Z,4.44
2023-02-06T05:53:50.494Z,4.47
2023-02-06T05:56:19.705Z,4.90
2023-02-06T05:58:49.409Z,4.58
2023-02-06T06:01:18.604Z,4.51
2023-02-06T06:03:49.545Z,4.05
2023-02-06T06:06:18.667Z,4.17
2023-02-06T06:08:48.322Z,4.69
2023-02-06T06:11:17.529Z,4.77
2023-02-06T06:13:46.986Z,4.61
2023-02-06T06:16:16.277Z,4.62
2023-02-06T06:18:45.707Z,4.83
2023-02-06T06:21:16.499Z,4.62
2023-02-06T06:23:46.132Z,4.64
2023-02-06T06:26:15.445Z,4.52
2023-02-06T06:28:44.883Z,4.50
2023-02-06T06:31:15.134Z,4.61
2023-02-06T06:33:45.060Z,5.02
2023-02-06T06:36:16.196Z,5.17
2023-02-06T06:38:45.763Z,4.85
2023-02-06T06:41:15.152Z,4.63
2023-02-06T06:43:44.947Z,4.66
2023-02-06T06:46:14.063Z,5.35
2023-02-06T06:48:43.594Z,5.10
2023-02-06T06:51:12.861Z,4.67
2023-02-06T06:53:43.879Z,4.79
2023-02-06T06:56:15.661Z,5.41
2023-02-06T06:58:45.203Z,5.05
2023-02-06T07:01:14.971Z,5.08
2023-02-06T07:03:45.547Z,5.24
2023-02-06T07:06:15.416Z,5.55
2023-02-06T07:08:46.233Z,5.52
2023-02-06T07:11:16.976Z,5.36
2023-02-06T07:13:46.902Z,5.26
2023-02-06T07:16:16.244Z,4.83
2023-02-06T07:18:45.746Z,5.06
2023-02-06T07:21:16.016Z,5.23
2023-02-06T07:23:46.827Z,5.14
2023-02-06T07:26:16.115Z,5.03
2023-02-06T07:28:45.603Z,4.80
2023-02-06T07:31:14.891Z,5.27
2023-02-06T07:33:44.469Z,4.74
2023-02-06T07:36:14.703Z,5.13
2023-02-06T07:38:45.918Z,5.09
2023-02-06T07:41:16.070Z,5.39
2023-02-06T07:43:45.834Z,5.13
2023-02-06T07:46:15.210Z,5.23
2023-02-06T07:48:44.692Z,5.62
2023-02-06T07:51:14.292Z,5.80
2023-02-06T07:53:45.175Z,5.79
2023-02-06T07:56:16.977Z,5.23
2023-02-06T07:58:47.493Z,5.91
2023-02-06T08:01:16.700Z,5.55
2023-02-06T08:03:46.458Z,5.52
2023-02-06T08:06:17.104Z,5.31
2023-02-06T08:08:48.543Z,5.21
2023-02-06T08:11:20.061Z,5.60
2023-02-06T08:13:50.563Z,5.63
2023-02-06T08:16:21.908Z,4.75
2023-02-06T08:18:51.805Z,5.22
2023-02-06T08:21:23.103Z,5.10
2023-02-06T08:23:58.464Z,5.10
2023-02-06T08:26:29.413Z,4.81
2023-02-06T08:29:02.973Z,5.10
2023-02-06T08:31:34.094Z,4.98
2023-02-06T08:34:03.790Z,4.98
2023-02-06T08:36:33.374Z,5.45
2023-02-06T08:39:05.400Z,5.47
2023-02-06T08:41:37.130Z,5.46
2023-02-06T08:44:11.846Z,5.51
2023-02-06T08:46:42.844Z,6.35
2023-02-06T08:49:15.906Z,6.94
2023-02-06T08:51:46.042Z,6.35
2023-02-06T08:54:18.825Z,6.14
2023-02-06T08:56:48.282Z,6.33
2023-02-06T08:59:19.534Z,6.28
2023-02-06T09:01:49.480Z,7.19
2023-02-06T09:04:19.686Z,7.11
2023-02-06T09:06:49.293Z,6.77
2023-02-06T09:09:20.753Z,7.42
2023-02-06T09:11:50.087Z,7.87
2023-02-06T09:14:20.411Z,7.65
2023-02-06T09:16:49.717Z,7.97
2023-02-06T09:19:19.278Z,7.71
2023-02-06T09:21:48.552Z,7.35
2023-02-06T09:24:19.424Z,7.16
2023-02-06T09:27:03.764Z,7.78
2023-02-06T09:29:33.470Z,7.42
2023-02-06T09:32:03.256Z,7.72
2023-02-06T09:34:32.899Z,8.01
2023-02-06T09:37:04.158Z,8.02
2023-02-06T09:39:35.414Z,7.96
2023-02-06T09:42:08.670Z,7.33
2023-02-06T09:44:41.648Z,7.30
2023-02-06T09:47:22.041Z,8.25
2023-02-06T09:49:53.932Z,7.70
2023-02-06T09:52:50.111Z,7.46
2023-02-06T09:55:31.816Z,8.14
2023-02-06T09:58:08.258Z,8.24
2023-02-06T10:00:44.150Z,8.64
2023-02-06T10:03:38.661Z,8.37
2023-02-06T10:06:19.133Z,7.90
2023-02-06T10:08:58.797Z,7.34
2023-02-06T10:11:41.747Z,8.28
2023-02-06T10:14:19.130Z,8.57
2023-02-06T10:16:53.566Z,8.55
2023-02-06T10:19:30.550Z,8.77
2023-02-06T10:22:06.291Z,9.66
2023-02-06T10:24:43.108Z,10.06
2023-02-06T10:27:15.729Z,10.92
2023-02-06T10:29:46.724Z,11.36
2023-02-06T10:32:34.512Z,10.96
2023-02-06T10:35:17.604Z,10.78
2023-02-06T10:38:18.974Z,10.91
2023-02-06T10:40:54.940Z,11.10
2023-02-06T10:43:37.033Z,11.78
2023-02-06T10:46:19.989Z,12.70
2023-02-06T10:48:58.989Z,15.56
2023-02-06T10:51:34.895Z,17.75
2023-02-06T10:54:07.809Z,18.93
2023-02-06T10:56:41.474Z,19.13
2023-02-06T10:59:24.104Z,22.96
2023-02-06T11:01:59.133Z,23.52
2023-02-06T11:04:39.623Z,23.53
2023-02-06T11:07:18.022Z,23.43
2023-02-06T11:09:47.662Z,23.45
2023-02-06T11:12:34.359Z,23.09
2023-02-06T11:15:10.279Z,24.43
2023-02-06T11:17:39.551Z,24.24
2023-02-06T11:20:22.049Z,25.45
2023-02-06T11:22:53.310Z,25.61
2023-02-06T11:25:29.179Z,21.54
2023-02-06T11:27:59.645Z,18.51
2023-02-06T11:30:35.337Z,20.03
2023-02-06T11:33:07.589Z,22.12
2023-02-06T11:35:41.609Z,19.22
2023-02-06T11:38:17.653Z,17.81
2023-02-06T11:40:57.055Z,16.56
2023-02-06T11:43:27.988Z,16.68
2023-02-06T11:46:17.971Z,15.94
2023-02-06T11:49:02.534Z,16.28
2023-02-06T11:51:49.218Z,14.70
2023-02-06T11:54:25.145Z,13.90
2023-02-06T11:57:02.197Z,13.67
2023-02-06T11:59:34.552Z,13.83
2023-02-06T12:02:26.491Z,15.61
2023-02-06T12:05:08.384Z,16.49
2023-02-06T12:07:40.792Z,15.87
2023-02-06T12:10:15.665Z,16.73
2023-02-06T12:12:49.502Z,15.16
2023-02-06T12:15:45.497Z,14.10
2023-02-06T12:18:17.597Z,13.23
2023-02-06T12:20:52.400Z,13.41
2023-02-06T12:23:27.589Z,12.36
2023-02-06T12:26:00.998Z,11.79
2023-02-06T12:28:34.925Z,11.83
2023-02-06T12:31:09.257Z,11.94
2023-02-06T12:33:45.453Z,11.41
2023-02-06T12:36:17.811Z,11.68
2023-02-06T12:38:52.546Z,12.13
2023-02-06T12:41:36.212Z,12.44
2023-02-06T12:44:14.516Z,15.26
2023-02-06T12:46:47.273Z,15.64
2023-02-06T12:49:23.466Z,16.35
2023-02-06T12:51:59.355Z,15.98
2023-02-06T12:54:34.965Z,19.41
2023-02-06T12:57:06.072Z,21.98
2023-02-06T13:00:03.040Z,24.02
2023-02-06T13:03:03.334Z,23.83
2023-02-06T13:05:38.336Z,21.44
2023-02-06T13:08:10.637Z,18.06
2023-02-06T13:10:41.552Z,15.59
2023-02-06T13:13:27.679Z,14.24
2023-02-06T13:16:00.464Z,13.38
2023-02-06T13:18:54.242Z,13.55
2023-02-06T13:21:28.786Z,15.88
2023-02-06T13:24:18.448Z,16.60
2023-02-06T13:27:10.785Z,18.55
2023-02-06T13:29:41.602Z,17.73
2023-02-06T13:32:53.459Z,16.62
2023-02-06T13:35:28.862Z,15.36
2023-02-06T13:38:28.467Z,12.88
2023-02-06T13:41:34.533Z,12.47
2023-02-06T13:44:13.007Z,11.49
2023-02-06T13:47:30.926Z,11.25
2023-02-06T13:50:45.895Z,11.75
2023-02-06T13:53:42.604Z,11.50
2023-02-06T13:56:35.783Z,11.39
2023-02-06T13:59:15.303Z,11.10
2023-02-06T14:01:45.451Z,10.83
2023-02-06T14:04:24.891Z,10.42
2023-02-06T14:07:27.189Z,10.44
2023-02-06T14:10:25.449Z,10.14
2023-02-06T14:13:08.248Z,10.61
2023-02-06T14:15:48.268Z,10.73
2023-02-06T14:18:32.021Z,10.42
2023-02-06T14:21:13.846Z,10.10
2023-02-06T14:24:01.154Z,10.05
2023-02-06T14:26:42.042Z,9.72
2023-02-06T14:29:29.830Z,9.12
2023-02-06T14:32:28.325Z,9.11
2023-02-06T14:35:11.450Z,9.17
2023-02-06T14:37:54.137Z,9.62
2023-02-06T14:40:26.866Z,9.84
2023-02-06T14:42:59.657Z,10.13
2023-02-06T14:45:40.954Z,10.20
2023-02-06T14:48:21.332Z,10.24
2023-02-06T14:50:56.086Z,10.07
2023-02-06T14:53:29.898Z,10.16
2023-02-06T14:56:09.656Z,9.90
2023-02-06T14:58:42.033Z,10.07
2023-02-06T15:01:21.751Z,9.68
2023-02-06T15:03:54.766Z,9.89
2023-02-06T15:06:36.740Z,9.97
2023-02-06T15:09:06.819Z,9.91
2023-02-06T15:11:36.930Z,9.71
2023-02-06T15:14:31.658Z,9.92
2023-02-06T15:17:02.910Z,9.59
2023-02-06T15:19:35.709Z,9.78
2023-02-06T15:22:08.898Z,9.71
2023-02-06T15:24:55.977Z,9.54
2023-02-06T15:27:29.962Z,9.41
2023-02-06T15:30:01.952Z,9.31
2023-02-06T15:32:34.687Z,9.33
2023-02-06T15:35:05.037Z,9.49
2023-02-06T15:37:37.265Z,9.64
2023-02-06T15:40:15.277Z,9.38
2023-02-06T15:42:45.063Z,8.99
2023-02-06T15:45:22.509Z,9.24
2023-02-06T15:47:53.838Z,9.33
2023-02-06T15:50:25.512Z,8.94
2023-02-06T15:52:55.461Z,9.19
2023-02-06T15:55:30.999Z,9.41
2023-02-06T15:58:02.846Z,9.48
2023-02-06T16:00:36.409Z,9.58
2023-02-06T16:03:09.222Z,9.40
2023-02-06T16:05:43.390Z,9.40
2023-02-06T16:08:19.389Z,9.52
2023-02-06T16:10:52.621Z,9.38
2023-02-06T16:13:26.063Z,9.44
2023-02-06T16:16:21.647Z,9.77
2023-02-06T16:18:53.505Z,9.72
2023-02-06T16:21:27.127Z,9.64
2023-02-06T16:24:07.882Z,10.10
2023-02-06T16:26:47.054Z,10.42
2023-02-06T16:29:25.527Z,10.56
2023-02-06T16:32:01.405Z,10.50
2023-02-06T16:34:38.599Z,10.63
2023-02-06T16:37:12.970Z,10.60
2023-02-06T16:39:43.861Z,10.60
2023-02-06T16:42:19.203Z,10.31
2023-02-06T16:44:51.155Z,10.34
2023-02-06T16:47:23.030Z,10.15
2023-02-06T16:49:52.630Z,10.32
2023-02-06T16:52:25.677Z,10.59
2023-02-06T16:54:57.946Z,10.72
2023-02-06T16:57:31.138Z,10.83
2023-02-06T17:00:01.018Z,10.69
2023-02-06T17:02:32.027Z,10.63
2023-02-06T17:05:01.984Z,10.83
2023-02-06T17:07:35.128Z,10.96
2023-02-06T17:10:05.003Z,10.87
2023-02-06T17:12:34.304Z,10.67
2023-02-06T17:15:04.087Z,10.49
2023-02-06T17:17:34.917Z,10.81
2023-02-06T17:20:04.620Z,10.63
2023-02-06T17:22:33.961Z,10.81
2023-02-06T17:25:03.662Z,11.23
2023-02-06T17:27:32.947Z,11.37
2023-02-06T17:30:02.465Z,11.17
2023-02-06T17:32:33.259Z,11.15
2023-02-06T17:35:03.041Z,11.22
2023-02-06T17:37:32.807Z,11.27
2023-02-06T17:40:02.389Z,11.25
2023-02-06T17:42:32.867Z,9.84
2023-02-06T17:45:02.661Z,9.45
2023-02-06T17:47:33.546Z,9.23
2023-02-06T17:50:03.443Z,9.30
2023-02-06T17:52:32.636Z,9.36
2023-02-06T17:55:02.148Z,9.48
2023-02-06T17:57:31.471Z,9.33
2023-02-06T18:00:01.067Z,9.19
2023-02-06T18:02:30.586Z,9.29
2023-02-06T18:05:01.981Z,9.38
2023-02-06T18:07:31.492Z,9.15
2023-02-06T18:10:01.319Z,9.29
2023-02-06T18:12:30.759Z,9.22
2023-02-06T18:15:00.877Z,8.98
2023-02-06T18:17:31.102Z,8.61
2023-02-06T18:20:02.201Z,8.70
2023-02-06T18:22:38.391Z,8.64
2023-02-06T18:25:09.419Z,8.84
2023-02-06T18:27:39.438Z,8.41
2023-02-06T18:30:10.584Z,8.07
2023-02-06T18:32:40.574Z,8.26
2023-02-06T18:35:12.036Z,8.47
2023-02-06T18:37:41.388Z,8.29
2023-02-06T18:40:12.182Z,8.40
2023-02-06T18:42:54.730Z,8.11
2023-02-06T18:45:31.370Z,8.07
2023-02-06T18:48:00.630Z,7.84
2023-02-06T18:50:32.788Z,8.33
2023-02-06T18:53:02.488Z,8.62
2023-02-06T18:55:34.953Z,8.46
2023-02-06T18:58:05.049Z,8.61
2023-02-06T19:00:36.252Z,8.63
2023-02-06T19:03:06.276Z,8.55
2023-02-06T19:05:38.184Z,8.37
2023-02-06T19:08:07.668Z,8.92
2023-02-06T19:10:37.350Z,8.69
2023-02-06T19:13:07.103Z,8.83
2023-02-06T19:15:38.205Z,9.00
2023-02-06T19:18:09.248Z,8.76
2023-02-06T19:20:43.072Z,8.73
2023-02-06T19:23:12.369Z,9.08
2023-02-06T19:25:42.692Z,8.90
2023-02-06T19:28:12.025Z,9.01
2023-02-06T19:30:41.829Z,9.02
2023-02-06T19:33:12.395Z,9.07
2023-02-06T19:35:44.427Z,8.95
2023-02-06T19:38:13.902Z,9.00
2023-02-06T19:40:44.994Z,8.53
2023-02-06T19:43:14.185Z,9.14
2023-02-06T19:45:43.908Z,8.89
2023-02-06T19:48:13.985Z,8.70
2023-02-06T19:50:45.383Z,8.69
2023-02-06T19:53:16.882Z,8.64
2023-02-06T19:55:49.752Z,8.15
2023-02-06T19:58:18.954Z,8.53
2023-02-06T20:00:49.862Z,8.53
2023-02-06T20:03:19.308Z,8.66
2023-02-06T20:05:50.402Z,8.64
2023-02-06T20:08:20.094Z,8.60
2023-02-06T20:10:49.568Z,8.50
2023-02-06T20:13:18.768Z,8.67
2023-02-06T20:15:48.810Z,8.67
2023-02-06T20:18:18.154Z,8.85
2023-02-06T20:20:49.240Z,8.76
2023-02-06T20:23:18.494Z,8.75
2023-02-06T20:25:48.073Z,8.67
2023-02-06T20:28:17.737Z,8.56
2023-02-06T20:30:47.850Z,8.58
2023-02-06T20:33:17.586Z,8.72
2023-02-06T20:35:47.267Z,8.63
2023-02-06T20:38:17.945Z,8.57
2023-02-06T20:40:54.088Z,8.30
2023-02-06T20:43:23.409Z,8.50
2023-02-06T20:45:53.526Z,8.49
2023-02-06T20:48:22.964Z,8.37
2023-02-06T20:50:59.033Z,8.52
2023-02-06T20:53:30.600Z,8.37
2023-02-06T20:56:00.314Z,8.69
2023-02-06T20:58:30.666Z,8.90
2023-02-06T21:01:00.215Z,8.70
2023-02-06T21:03:29.345Z,8.98
2023-02-06T21:06:00.686Z,8.93
2023-02-06T21:08:31.401Z,8.79
2023-02-06T21:11:00.884Z,8.71
2023-02-06T21:13:30.499Z,8.54
2023-02-06T21:16:01.120Z,8.55
2023-02-06T21:18:32.220Z,8.80
2023-02-06T21:21:09.368Z,8.64
2023-02-06T21:23:41.839Z,8.70
2023-02-06T21:26:14.005Z,8.51
2023-02-06T21:28:43.368Z,8.93
2023-02-06T21:31:16.483Z,8.81
2023-02-06T21:33:48.248Z,8.52
2023-02-06T21:36:17.843Z,8.49
2023-02-06T21:38:48.593Z,8.40
2023-02-06T21:41:20.164Z,8.42
2023-02-06T21:43:49.450Z,8.31
2023-02-06T21:46:19.007Z,8.52
2023-02-06T21:48:53.668Z,8.25
2023-02-06T21:51:23.569Z,7.95
2023-02-06T21:53:54.450Z,7.44
2023-02-06T21:56:26.318Z,7.29
2023-02-06T21:58:56.736Z,7.39
2023-02-06T22:01:28.536Z,7.71
2023-02-06T22:03:58.321Z,7.76
2023-02-06T22:06:28.981Z,8.07
2023-02-06T22:09:05.281Z,7.66
2023-02-06T22:11:36.709Z,7.24
2023-02-06T22:14:07.993Z,7.96
2023-02-06T22:16:38.205Z,8.23
2023-02-06T22:19:08.239Z,8.31
2023-02-06T22:21:38.072Z,8.26
2023-02-06T22:24:09.896Z,7.69
2023-02-06T22:26:41.512Z,7.38
2023-02-06T22:29:13.807Z,8.03
2023-02-06T22:31:44.773Z,7.59
2023-02-06T22:34:18.213Z,7.88
2023-02-06T22:36:48.746Z,7.72
2023-02-06T22:39:20.140Z,7.70
2023-02-06T22:41:50.310Z,7.89
2023-02-06T22:44:21.090Z,8.03
2023-02-06T22:46:52.496Z,8.20
2023-02-06T22:49:24.398Z,8.26
2023-02-06T22:51:54.042Z,8.20
2023-02-06T22:54:24.853Z,7.87
2023-02-06T22:56:54.478Z,7.66
2023-02-06T22:59:25.655Z,7.62
2023-02-06T23:01:57.797Z,7.88
2023-02-06T23:04:28.823Z,8.23
2023-02-06T23:06:58.705Z,7.87
2023-02-06T23:09:33.251Z,8.15
2023-02-06T23:12:04.018Z,8.14
2023-02-06T23:14:34.515Z,7.77
2023-02-06T23:17:04.612Z,7.92
2023-02-06T23:19:33.938Z,8.20
2023-02-06T23:22:03.660Z,8.26
2023-02-06T23:24:34.264Z,8.18
2023-02-06T23:27:03.754Z,8.12
2023-02-06T23:29:33.186Z,8.13
2023-02-06T23:32:03.579Z,7.78
2023-02-06T23:34:32.956Z,8.01
2023-02-06T23:37:02.561Z,8.04
2023-02-06T23:39:33.283Z,7.92
2023-02-06T23:42:02.919Z,7.85
2023-02-06T23:44:33.087Z,7.81
2023-02-06T23:47:02.619Z,7.97
2023-02-06T23:49:31.854Z,7.97
2023-02-06T23:52:01.367Z,7.84
2023-02-06T23:54:30.581Z,7.70
2023-02-06T23:57:01.581Z,7.41
2023-02-06T23:59:30.756Z,7.19
